Aviation Digital Data Service (ADDS)

Output produced by METARs form (1308 UTC 24 August 2019)
found at http://www.aviationweather.gov/metar/data/
 
Forecast for: LCPH (PAPHOS/BAF INTL , CY)
Text: TAF LCPH 241130Z 2412/2512 26012KT 9999 FEW025
Forecast period: 1200 to 1700 UTC 24 August 2019
Forecast type: FROM: standard forecast or significant change
Winds: from the W (260 degrees) at 14 MPH (12 knots; 6.2 m/s)
Visibility: 6 or more miles 10+ km)
Ceiling: at least 12,000 feet AGL
Clouds: few clouds at 2500 feet AGL
Weather: no significant weather forecast for this period
Text: BECMG 2417/2420 34008KT
Forecast period: 1700 UTC 24 August 2019 to 0900 UTC 25 August 2019
Forecast type: BECOMING: Conditions expected to become as follows by 2000 UTC 24 August 2019
Winds: from the NNW (340 degrees) at 9 MPH (8 knots; 4.1 m/s)
Visibility: 6 or more miles 10+ km)
Ceiling: at least 12,000 feet AGL
Clouds: few clouds at 2500 feet AGL
Weather: no significant weather forecast for this period
Text: BECMG 2509/2512 28012KT
Forecast period: 0900 to 1200 UTC 25 August 2019
Forecast type: BECOMING: Conditions expected to become as follows by 1200 UTC 25 August 2019
Winds: from the W (280 degrees) at 14 MPH (12 knots; 6.2 m/s)
Visibility: 6 or more miles 10+ km)
Ceiling: at least 12,000 feet AGL
Clouds: few clouds at 2500 feet AGL
Weather: no significant weather forecast for this period